createdAt,value
2022-09-20T00:00:05.161Z,99588.14
2022-09-20T00:02:57.285Z,99588.90
2022-09-20T00:05:29.450Z,99585.22
2022-09-20T00:08:01.625Z,99589.79
2022-09-20T00:10:38.068Z,99592.59
2022-09-20T00:13:12.629Z,99589.52
2022-09-20T00:15:46.718Z,99596.52
2022-09-20T00:18:18.785Z,99595.95
2022-09-20T00:20:51.681Z,99596.80
2022-09-20T00:23:24.064Z,99601.33
2022-09-20T00:26:00.901Z,99600.33
2022-09-20T00:28:34.843Z,99604.05
2022-09-20T00:31:08.057Z,99600.88
2022-09-20T00:33:58.076Z,99600.75
2022-09-20T00:36:31.193Z,99600.92
2022-09-20T00:39:04.667Z,99605.95
2022-09-20T00:41:36.775Z,99611.02
2022-09-20T00:44:39.353Z,99608.81
2022-09-20T00:47:19.322Z,99607.20
2022-09-20T00:49:53.511Z,99608.30
2022-09-20T00:52:26.869Z,99610.14
2022-09-20T00:55:00.590Z,99600.63
2022-09-20T00:57:35.570Z,99603.05
2022-09-20T01:00:11.458Z,99603.05
2022-09-20T01:02:47.510Z,99600.16
2022-09-20T01:05:21.046Z,99601.79
2022-09-20T01:07:54.780Z,99602.09
2022-09-20T01:10:27.012Z,99602.47
2022-09-20T01:13:00.938Z,99599.00
2022-09-20T01:15:35.713Z,99599.70
2022-09-20T01:18:10.676Z,99599.25
2022-09-20T01:20:45.684Z,99603.23
2022-09-20T01:23:36.265Z,99605.88
2022-09-20T01:26:49.882Z,99609.23
2022-09-20T01:29:37.138Z,99608.77
2022-09-20T01:32:14.019Z,99610.92
2022-09-20T01:34:46.803Z,99612.14
2022-09-20T01:37:26.099Z,99613.27
2022-09-20T01:40:06.601Z,99615.56
2022-09-20T01:42:45.489Z,99610.51
2022-09-20T01:45:28.655Z,99617.55
2022-09-20T01:48:10.563Z,99622.21
2022-09-20T01:51:03.824Z,99620.29
2022-09-20T01:54:27.491Z,99618.36
2022-09-20T01:57:26.442Z,99621.21
2022-09-20T02:00:13.364Z,99618.16
2022-09-20T02:03:25.288Z,99624.91
2022-09-20T02:06:14.963Z,99621.52
2022-09-20T02:09:13.466Z,99624.39
2022-09-20T02:11:55.204Z,99624.45
2022-09-20T02:14:42.501Z,99627.83
2022-09-20T02:17:27.645Z,99627.73
2022-09-20T02:20:14.575Z,99631.13
2022-09-20T02:22:58.778Z,99632.41
2022-09-20T02:25:53.055Z,99631.04
2022-09-20T02:28:45.819Z,99631.80
2022-09-20T02:31:24.552Z,99630.95
2022-09-20T02:34:21.186Z,99631.35
2022-09-20T02:37:07.934Z,99631.83
2022-09-20T02:39:50.409Z,99632.53
2022-09-20T02:42:27.030Z,99633.91
2022-09-20T02:45:08.209Z,99632.71
2022-09-20T02:47:43.700Z,99631.45
2022-09-20T02:50:24.553Z,99633.50
2022-09-20T02:53:12.223Z,99636.73
2022-09-20T02:55:57.694Z,99637.02
2022-09-20T02:58:43.687Z,99638.21
2022-09-20T03:01:32.405Z,99641.16
2022-09-20T03:04:21.914Z,99638.42
2022-09-20T03:07:02.857Z,99643.77
2022-09-20T03:09:43.087Z,99645.52
2022-09-20T03:12:28.168Z,99641.89
2022-09-20T03:15:12.166Z,99645.02
2022-09-20T03:17:54.347Z,99646.27
2022-09-20T03:20:37.202Z,99649.23
2022-09-20T03:23:25.232Z,99650.77
2022-09-20T03:26:05.251Z,99650.89
2022-09-20T03:28:55.666Z,99653.40
2022-09-20T03:31:40.037Z,99651.36
2022-09-20T03:34:24.568Z,99651.95
2022-09-20T03:37:10.042Z,99650.80
2022-09-20T03:40:01.735Z,99652.02
2022-09-20T03:42:39.283Z,99653.75
2022-09-20T03:45:38.369Z,99659.81
2022-09-20T03:48:37.056Z,99665.20
2022-09-20T03:51:19.028Z,99663.48
2022-09-20T03:54:20.378Z,99662.10
2022-09-20T03:57:25.941Z,99663.59
2022-09-20T04:00:10.041Z,99666.16
2022-09-20T04:03:04.990Z,99666.27
2022-09-20T04:05:49.144Z,99664.66
2022-09-20T04:08:37.961Z,99662.72
2022-09-20T04:11:25.245Z,99666.00
2022-09-20T04:14:11.286Z,99666.35
2022-09-20T04:16:50.809Z,99669.39
2022-09-20T04:19:32.915Z,99673.29
2022-09-20T04:22:07.559Z,99680.88
2022-09-20T04:24:47.498Z,99688.87
2022-09-20T04:27:24.241Z,99686.89
2022-09-20T04:30:02.343Z,99687.90
2022-09-20T04:32:41.577Z,99688.58
2022-09-20T04:35:43.122Z,99694.63
2022-09-20T04:38:18.976Z,99697.02
2022-09-20T04:41:16.567Z,99696.89
2022-09-20T04:44:16.411Z,99698.17
2022-09-20T04:47:25.188Z,99703.33
2022-09-20T04:50:24.360Z,99709.20
2022-09-20T04:53:26.146Z,99714.57
2022-09-20T04:56:02.552Z,99716.42
2022-09-20T04:59:01.056Z,99716.19
2022-09-20T05:02:20.487Z,99718.98
2022-09-20T05:05:26.019Z,99721.88
2022-09-20T05:08:26.685Z,99728.54
2022-09-20T05:11:41.496Z,99731.48
2022-09-20T05:14:45.191Z,99735.76
2022-09-20T05:17:26.660Z,99744.52
2022-09-20T05:20:24.333Z,99747.73
2022-09-20T05:23:38.070Z,99750.23
2022-09-20T05:26:27.880Z,99753.46
2022-09-20T05:29:10.886Z,99758.69
2022-09-20T05:31:47.628Z,99759.45
2022-09-20T05:34:23.875Z,99762.62
2022-09-20T05:37:05.819Z,99761.01
2022-09-20T05:39:43.585Z,99760.33
2022-09-20T05:42:21.940Z,99760.81
2022-09-20T05:45:05.629Z,99763.15
2022-09-20T05:47:48.254Z,99766.70
2022-09-20T05:50:38.041Z,99771.62
2022-09-20T05:53:51.614Z,99770.64
2022-09-20T05:56:36.208Z,99768.80
2022-09-20T05:59:29.889Z,99771.69
2022-09-20T06:02:17.888Z,99774.23
2022-09-20T06:05:01.586Z,99773.70
2022-09-20T06:07:51.183Z,99782.52
2022-09-20T06:10:52.523Z,99782.61
2022-09-20T06:13:43.292Z,99780.89
2022-09-20T06:16:22.464Z,99782.49
2022-09-20T06:19:06.433Z,99790.27
2022-09-20T06:21:49.589Z,99793.82
2022-09-20T06:24:34.148Z,99791.66
2022-09-20T06:27:12.048Z,99798.63
2022-09-20T06:29:50.673Z,99795.23
2022-09-20T06:32:23.005Z,99798.31
2022-09-20T06:34:55.529Z,99800.84
2022-09-20T06:37:59.398Z,99805.42
2022-09-20T06:40:58.073Z,99810.07
2022-09-20T06:43:31.751Z,99806.67
2022-09-20T06:46:03.875Z,99808.79
2022-09-20T06:48:40.056Z,99809.79
2022-09-20T06:51:12.568Z,99810.83
2022-09-20T06:53:45.052Z,99817.10
2022-09-20T06:56:20.687Z,99822.15
2022-09-20T06:58:53.317Z,99823.25
2022-09-20T07:01:30.171Z,99827.60
2022-09-20T07:04:03.272Z,99828.30
2022-09-20T07:06:35.993Z,99830.64
2022-09-20T07:09:08.580Z,99829.31
2022-09-20T07:11:40.606Z,99833.66
2022-09-20T07:14:12.841Z,99834.55
2022-09-20T07:16:44.989Z,99833.20
2022-09-20T07:19:17.544Z,99835.55
2022-09-20T07:21:49.664Z,99838.66
2022-09-20T07:24:21.752Z,99844.50
2022-09-20T07:27:01.774Z,99848.39
2022-09-20T07:29:35.421Z,99849.91
2022-09-20T07:32:08.121Z,99854.56
2022-09-20T07:34:40.865Z,99858.97
2022-09-20T07:37:14.091Z,99862.55
2022-09-20T07:39:46.442Z,99864.25
2022-09-20T07:42:18.818Z,99867.33
2022-09-20T07:44:50.919Z,99865.41
2022-09-20T07:47:25.327Z,99869.32
2022-09-20T07:49:57.515Z,99866.57
2022-09-20T07:52:29.642Z,99867.52
2022-09-20T07:55:02.829Z,99869.23
2022-09-20T07:57:39.809Z,99872.15
2022-09-20T08:00:11.707Z,99876.38
2022-09-20T08:02:46.767Z,99878.08
2022-09-20T08:05:19.102Z,99880.61
2022-09-20T08:07:51.228Z,99886.00
2022-09-20T08:10:25.402Z,99890.27
2022-09-20T08:15:50.277Z,99890.30
2022-09-20T08:18:22.431Z,99891.64
2022-09-20T08:20:54.583Z,99893.14
2022-09-20T08:23:26.868Z,99889.81
2022-09-20T08:26:01.102Z,99888.45
2022-09-20T08:28:33.874Z,99891.08
2022-09-20T08:31:07.617Z,99895.80
2022-09-20T08:33:40.326Z,99893.33
2022-09-20T08:36:15.729Z,99898.85
2022-09-20T08:41:43.737Z,99902.67
2022-09-20T08:44:25.309Z,99900.09
2022-09-20T08:47:07.275Z,99902.14
2022-09-20T08:49:46.132Z,99903.13
2022-09-20T08:52:22.497Z,99900.84
2022-09-20T08:54:57.119Z,99902.13
2022-09-20T08:57:33.820Z,99905.65
2022-09-20T09:00:17.625Z,99907.15
2022-09-20T09:02:51.827Z,99910.71
2022-09-20T09:05:33.091Z,99911.26
2022-09-20T09:08:16.372Z,99911.93
2022-09-20T09:10:54.337Z,99913.81
2022-09-20T09:13:33.150Z,99917.98
2022-09-20T09:16:12.084Z,99917.05
2022-09-20T09:18:47.170Z,99915.67
2022-09-20T09:21:24.333Z,99917.41
2022-09-20T09:24:04.412Z,99917.16
2022-09-20T09:26:41.264Z,99916.46
2022-09-20T09:29:19.516Z,99917.72
2022-09-20T09:31:54.538Z,99915.05
2022-09-20T09:34:31.709Z,99920.31
2022-09-20T09:37:03.910Z,99924.66
2022-09-20T09:39:38.406Z,99926.06
2022-09-20T09:42:28.963Z,99929.63
2022-09-20T09:45:13.816Z,99928.96
2022-09-20T09:47:46.080Z,99928.23
2022-09-20T09:50:27.599Z,99918.85
2022-09-20T09:53:07.325Z,99921.58
2022-09-20T09:55:55.674Z,99920.30
2022-09-20T09:58:40.877Z,99922.83
2022-09-20T10:01:33.110Z,99926.61
2022-09-20T10:04:13.774Z,99924.85
2022-09-20T10:06:55.071Z,99922.07
2022-09-20T10:09:37.971Z,99925.14
2022-09-20T10:12:23.621Z,99921.14
2022-09-20T10:15:09.660Z,99923.77
2022-09-20T10:17:58.449Z,99924.31
2022-09-20T10:20:43.212Z,99928.80
2022-09-20T10:24:01.327Z,99927.94
2022-09-20T10:26:35.150Z,99929.81
2022-09-20T10:29:18.299Z,99925.25
2022-09-20T10:32:05.569Z,99930.29
2022-09-20T10:35:08.878Z,99931.01
2022-09-20T10:37:56.287Z,99928.48
2022-09-20T10:40:49.089Z,99928.02
2022-09-20T10:43:36.840Z,99924.66
2022-09-20T10:46:37.950Z,99926.37
2022-09-20T10:49:25.066Z,99923.75
2022-09-20T10:52:11.396Z,99924.88
2022-09-20T10:54:57.173Z,99924.81
2022-09-20T10:58:04.152Z,99920.67
2022-09-20T11:00:49.123Z,99925.02
2022-09-20T11:03:40.689Z,99925.34
2022-09-20T11:06:21.435Z,99923.11
2022-09-20T11:08:59.249Z,99920.77
2022-09-20T11:11:36.257Z,99921.55
2022-09-20T11:14:08.087Z,99921.13
2022-09-20T11:16:46.405Z,99911.70
2022-09-20T11:19:26.859Z,99918.17
2022-09-20T11:22:06.225Z,99916.38
2022-09-20T11:24:44.485Z,99917.75
2022-09-20T11:27:22.072Z,99918.48
2022-09-20T11:30:01.160Z,99920.59
2022-09-20T11:32:43.110Z,99921.30
2022-09-20T11:35:27.247Z,99921.43
2022-09-20T11:38:11.426Z,99927.22
2022-09-20T11:40:48.325Z,99919.88
2022-09-20T11:43:24.255Z,99919.78
2022-09-20T11:46:00.976Z,99918.11
2022-09-20T11:48:33.487Z,99914.55
2022-09-20T11:51:22.343Z,99911.11
2022-09-20T11:54:16.199Z,99914.23
2022-09-20T11:56:56.575Z,99913.94
2022-09-20T11:59:38.223Z,99915.76
2022-09-20T12:02:23.755Z,99917.23
2022-09-20T12:04:56.779Z,99918.14
2022-09-20T12:07:36.032Z,99920.88
2022-09-20T12:10:21.706Z,99919.47
2022-09-20T12:12:59.753Z,99918.58
2022-09-20T12:15:34.961Z,99913.13
2022-09-20T12:18:13.807Z,99911.83
2022-09-20T12:21:07.904Z,99915.02
2022-09-20T12:24:03.941Z,99913.10
2022-09-20T12:26:51.062Z,99914.02
2022-09-20T12:30:06.826Z,99919.48
2022-09-20T12:33:01.165Z,99913.61
2022-09-20T12:36:16.653Z,99910.72
2022-09-20T12:39:07.963Z,99905.80
2022-09-20T12:41:52.214Z,99902.83
2022-09-20T12:44:31.614Z,99900.42
2022-09-20T12:47:08.584Z,99899.01
2022-09-20T12:50:07.849Z,99897.92
2022-09-20T12:52:58.617Z,99898.54
2022-09-20T12:55:50.324Z,99891.05
2022-09-20T12:58:29.765Z,99893.54
2022-09-20T13:01:40.349Z,99891.78
2022-09-20T13:04:53.233Z,99890.48
2022-09-20T13:07:59.843Z,99888.45
2022-09-20T13:10:39.107Z,99892.01
2022-09-20T13:13:32.779Z,99895.08
2022-09-20T13:16:07.655Z,99895.67
2022-09-20T13:18:41.431Z,99898.61
2022-09-20T13:21:13.661Z,99900.05
2022-09-20T13:23:54.294Z,99901.00
2022-09-20T13:26:31.183Z,99903.79
2022-09-20T13:29:05.519Z,99905.00
2022-09-20T13:31:37.984Z,99908.30
2022-09-20T13:34:24.488Z,99916.30
2022-09-20T13:36:59.559Z,99923.31
2022-09-20T13:39:41.375Z,99924.78
2022-09-20T13:42:20.559Z,99926.06
2022-09-20T13:44:53.331Z,99934.40
2022-09-20T13:47:30.679Z,99936.44
2022-09-20T13:50:17.461Z,99938.06
2022-09-20T13:52:51.664Z,99940.93
2022-09-20T13:55:34.434Z,99936.98
2022-09-20T13:58:08.657Z,99936.73
2022-09-20T14:00:50.085Z,99927.79
2022-09-20T14:03:23.626Z,99924.89
2022-09-20T14:05:58.359Z,99929.42
2022-09-20T14:08:54.744Z,99925.18
2022-09-20T14:11:30.258Z,99925.99
2022-09-20T14:14:04.390Z,99921.25
2022-09-20T14:16:40.001Z,99923.69
2022-09-20T14:19:16.806Z,99922.06
2022-09-20T14:21:49.344Z,99921.45
2022-09-20T14:24:33.137Z,99916.84
2022-09-20T14:27:19.104Z,99920.10
2022-09-20T14:29:52.897Z,99923.79
2022-09-20T14:32:40.978Z,99922.33
2022-09-20T14:35:19.774Z,99921.71
2022-09-20T14:37:53.850Z,99920.47
2022-09-20T14:40:28.722Z,99920.84
2022-09-20T14:43:03.639Z,99926.11
2022-09-20T14:45:38.970Z,99929.02
2022-09-20T14:48:33.640Z,99932.90
2022-09-20T14:51:26.837Z,99932.04
2022-09-20T14:54:27.087Z,99933.80
2022-09-20T14:57:00.666Z,99939.95
2022-09-20T14:59:40.007Z,99947.63
2022-09-20T15:02:16.791Z,99959.94
2022-09-20T15:04:54.342Z,99963.27
2022-09-20T15:07:26.731Z,99968.14
2022-09-20T15:10:14.846Z,99965.79
2022-09-20T15:12:47.575Z,99969.27
2022-09-20T15:15:20.827Z,99975.45
2022-09-20T15:17:53.114Z,99985.33
2022-09-20T15:20:25.570Z,99992.02
2022-09-20T15:22:58.079Z,99991.80
2022-09-20T15:25:30.146Z,99986.15
2022-09-20T15:28:03.226Z,99979.27
2022-09-20T15:30:35.385Z,99977.39
2022-09-20T15:33:07.512Z,99974.25
2022-09-20T15:35:40.527Z,99973.33
2022-09-20T15:38:14.074Z,99978.21
2022-09-20T15:40:50.570Z,99977.60
2022-09-20T15:43:27.223Z,99985.05
2022-09-20T15:46:02.043Z,99990.52
2022-09-20T15:48:34.237Z,99994.71
2022-09-20T15:51:08.656Z,99999.98
2022-09-20T15:53:45.176Z,99994.40
2022-09-20T15:56:22.269Z,99995.45
2022-09-20T15:58:59.173Z,99996.25
2022-09-20T16:01:33.245Z,99995.70
2022-09-20T16:04:10.440Z,99993.91
2022-09-20T16:06:44.856Z,99997.68
2022-09-20T16:09:21.882Z,99998.73
2022-09-20T16:11:58.956Z,100010.13
2022-09-20T16:14:31.152Z,100013.61
2022-09-20T16:17:03.443Z,100010.60
2022-09-20T16:19:35.640Z,100008.67
2022-09-20T16:22:07.766Z,100006.56
2022-09-20T16:24:39.890Z,100011.49
2022-09-20T16:27:12.675Z,100009.90
2022-09-20T16:29:45.355Z,100009.82
2022-09-20T16:32:17.367Z,100008.90
2022-09-20T16:34:49.973Z,100005.63
2022-09-20T16:37:22.833Z,100011.69
2022-09-20T16:39:54.994Z,100006.40
2022-09-20T16:42:27.141Z,100009.32
2022-09-20T16:44:59.721Z,100010.98
2022-09-20T16:47:31.714Z,100020.08
2022-09-20T16:50:03.969Z,100014.74
2022-09-20T16:52:37.091Z,100022.50
2022-09-20T16:55:13.162Z,100028.73
2022-09-20T16:57:45.177Z,100034.75
2022-09-20T17:00:20.971Z,100038.93
2022-09-20T17:02:53.424Z,100040.06
2022-09-20T17:05:25.609Z,100047.73
2022-09-20T17:07:58.587Z,100049.48
2022-09-20T17:10:31.203Z,100055.39
2022-09-20T17:13:03.246Z,100058.16
2022-09-20T17:15:37.785Z,100057.76
2022-09-20T17:18:14.861Z,100062.95
2022-09-20T17:20:49.166Z,100066.60
2022-09-20T17:23:21.246Z,100068.80
2022-09-20T17:26:06.359Z,100073.24
2022-09-20T17:28:40.601Z,100075.80
2022-09-20T17:31:14.574Z,100074.70
2022-09-20T17:33:47.057Z,100076.73
2022-09-20T17:36:21.527Z,100081.44
2022-09-20T17:39:00.428Z,100083.08
2022-09-20T17:41:37.436Z,100086.18
2022-09-20T17:44:12.092Z,100084.85
2022-09-20T17:46:45.839Z,100087.88
2022-09-20T17:49:19.472Z,100086.17
2022-09-20T17:51:53.568Z,100088.69
2022-09-20T17:54:26.672Z,100088.23
2022-09-20T17:56:58.704Z,100088.80
2022-09-20T17:59:30.950Z,100089.77
2022-09-20T18:02:03.058Z,100092.61
2022-09-20T18:04:35.184Z,100099.44
2022-09-20T18:07:07.411Z,100103.91
2022-09-20T18:09:39.435Z,100102.89
2022-09-20T18:12:16.640Z,100104.17
2022-09-20T18:14:50.249Z,100105.13
2022-09-20T18:17:22.350Z,100107.68
2022-09-20T18:19:54.580Z,100105.38
2022-09-20T18:22:26.680Z,100111.33
2022-09-20T18:24:58.699Z,100115.04
2022-09-20T18:27:34.112Z,100113.37
2022-09-20T18:30:07.889Z,100119.27
2022-09-20T18:32:40.052Z,100116.73
2022-09-20T18:35:12.394Z,100119.50
2022-09-20T18:37:44.528Z,100126.12
2022-09-20T18:40:16.825Z,100128.07
2022-09-20T18:42:55.267Z,100131.77
2022-09-20T18:45:27.309Z,100131.00
2022-09-20T18:47:59.807Z,100135.93
2022-09-20T18:50:31.998Z,100135.97
2022-09-20T18:53:04.338Z,100142.48
2022-09-20T18:55:37.424Z,100140.66
2022-09-20T18:58:11.126Z,100144.17
2022-09-20T19:00:43.557Z,100146.31
2022-09-20T19:03:25.570Z,100148.13
2022-09-20T19:06:06.654Z,100148.69
2022-09-20T19:08:45.505Z,100152.41
2022-09-20T19:11:28.188Z,100152.85
2022-09-20T19:14:07.977Z,100157.06
2022-09-20T19:16:41.481Z,100159.48
2022-09-20T19:19:27.384Z,100156.75
2022-09-20T19:22:04.819Z,100161.48
2022-09-20T19:25:01.439Z,100166.11
2022-09-20T19:27:35.360Z,100169.96
2022-09-20T19:30:13.611Z,100167.06
2022-09-20T19:32:46.814Z,100162.95
2022-09-20T19:35:23.574Z,100165.45
2022-09-20T19:38:05.586Z,100164.98
2022-09-20T19:40:48.755Z,100167.66
2022-09-20T19:43:41.359Z,100166.54
2022-09-20T19:46:27.082Z,100167.83
2022-09-20T19:49:09.296Z,100169.81
2022-09-20T19:51:44.165Z,100171.79
2022-09-20T19:54:18.882Z,100168.86
2022-09-20T19:56:56.159Z,100172.18
2022-09-20T19:59:30.750Z,100176.02
2022-09-20T20:02:04.407Z,100172.71
2022-09-20T20:04:37.685Z,100172.43
2022-09-20T20:07:16.794Z,100175.06
2022-09-20T20:09:55.369Z,100177.57
2022-09-20T20:12:36.860Z,100176.58
2022-09-20T20:15:21.671Z,100178.02
2022-09-20T20:18:03.087Z,100179.65
2022-09-20T20:20:40.969Z,100180.44
2022-09-20T20:23:41.792Z,100182.25
2022-09-20T20:26:20.622Z,100187.22
2022-09-20T20:28:53.560Z,100186.79
2022-09-20T20:31:25.783Z,100190.89
2022-09-20T20:33:57.893Z,100195.02
2022-09-20T20:36:29.904Z,100197.58
2022-09-20T20:39:02.862Z,100199.45
2022-09-20T20:41:35.032Z,100200.80
2022-09-20T20:44:07.958Z,100200.58
2022-09-20T20:46:40.077Z,100200.69
2022-09-20T20:49:12.180Z,100202.21
2022-09-20T20:51:44.904Z,100197.77
2022-09-20T20:54:17.094Z,100200.48
2022-09-20T20:56:49.188Z,100197.30
2022-09-20T20:59:21.272Z,100200.15
2022-09-20T21:01:53.403Z,100200.23
2022-09-20T21:04:27.586Z,100199.08
2022-09-20T21:07:00.407Z,100197.25
2022-09-20T21:09:32.595Z,100202.36
2022-09-20T21:12:05.234Z,100201.77
2022-09-20T21:14:38.295Z,100206.90
2022-09-20T21:17:11.082Z,100209.95
2022-09-20T21:19:43.084Z,100208.27
2022-09-20T21:22:15.145Z,100210.27
2022-09-20T21:24:47.154Z,100210.89
2022-09-20T21:27:20.970Z,100207.30
2022-09-20T21:29:53.012Z,100212.55
2022-09-20T21:32:25.067Z,100212.43
2022-09-20T21:34:57.243Z,100211.08
2022-09-20T21:37:29.542Z,100212.38
2022-09-20T21:40:02.327Z,100209.67
2022-09-20T21:42:34.526Z,100213.40
2022-09-20T21:45:11.137Z,100212.98
2022-09-20T21:47:43.175Z,100209.29
2022-09-20T21:50:15.655Z,100211.83
2022-09-20T21:52:48.753Z,100217.45
2022-09-20T21:55:20.761Z,100220.87
2022-09-20T21:57:53.294Z,100220.98
2022-09-20T22:00:27.357Z,100226.10
2022-09-20T22:02:59.383Z,100227.95
2022-09-20T22:05:31.374Z,100228.91
2022-09-20T22:08:03.630Z,100231.57
2022-09-20T22:10:36.340Z,100231.80
2022-09-20T22:13:08.772Z,100232.23
2022-09-20T22:15:40.961Z,100237.84
2022-09-20T22:18:12.998Z,100237.59
2022-09-20T22:20:45.682Z,100239.38
2022-09-20T22:23:17.921Z,100240.86
2022-09-20T22:25:59.575Z,100242.82
2022-09-20T22:28:31.687Z,100241.86
2022-09-20T22:31:09.275Z,100244.02
2022-09-20T22:33:45.541Z,100241.23
2022-09-20T22:36:19.977Z,100240.71
2022-09-20T22:38:52.951Z,100242.26
2022-09-20T22:41:25.557Z,100239.77
2022-09-20T22:43:58.459Z,100237.80
2022-09-20T22:46:31.692Z,100236.20
2022-09-20T22:49:05.370Z,100235.46
2022-09-20T22:51:38.458Z,100237.32
2022-09-20T22:54:12.311Z,100239.34
2022-09-20T22:56:44.450Z,100235.14
2022-09-20T22:59:17.273Z,100234.95
2022-09-20T23:01:51.134Z,100235.80
2022-09-20T23:04:23.654Z,100234.73
2022-09-20T23:06:56.430Z,100234.16
2022-09-20T23:09:29.362Z,100237.10
2022-09-20T23:12:01.433Z,100233.67
2022-09-20T23:14:33.911Z,100234.55
2022-09-20T23:17:06.053Z,100231.45
2022-09-20T23:19:38.106Z,100230.63
2022-09-20T23:22:10.273Z,100233.24
2022-09-20T23:24:42.605Z,100233.44
2022-09-20T23:27:15.908Z,100233.79
2022-09-20T23:29:47.945Z,100238.85
2022-09-20T23:32:19.995Z,100238.53
2022-09-20T23:34:52.143Z,100241.20
2022-09-20T23:37:24.494Z,100242.96
2022-09-20T23:39:56.935Z,100245.58
2022-09-20T23:42:29.151Z,100244.73
2022-09-20T23:45:01.140Z,100248.04
2022-09-20T23:47:33.275Z,100245.61
2022-09-20T23:50:05.512Z,100249.41
2022-09-20T23:52:37.630Z,100248.86
2022-09-20T23:55:11.253Z,100243.25
2022-09-20T23:57:44.554Z,100247.31
